createdAt,value
2018-08-06T00:00:14.575Z,50.40
2018-08-06T00:02:42.842Z,50.78
2018-08-06T00:05:11.196Z,50.37
2018-08-06T00:07:39.557Z,50.42
2018-08-06T00:10:11.189Z,50.10
2018-08-06T00:12:39.585Z,50.10
2018-08-06T00:15:09.248Z,50.25
2018-08-06T00:17:37.604Z,50.37
2018-08-06T00:20:06.778Z,50.30
2018-08-06T00:22:35.150Z,50.37
2018-08-06T00:25:03.515Z,50.66
2018-08-06T00:27:32.098Z,50.59
2018-08-06T00:30:00.386Z,50.40
2018-08-06T00:32:28.787Z,50.81
2018-08-06T00:34:57.062Z,51.46
2018-08-06T00:37:25.294Z,51.34
2018-08-06T00:39:53.684Z,51.69
2018-08-06T00:42:22.189Z,51.86
2018-08-06T00:44:50.536Z,51.94
2018-08-06T00:47:18.802Z,51.92
2018-08-06T00:49:47.101Z,51.75
2018-08-06T00:52:15.435Z,51.90
2018-08-06T00:54:43.714Z,52.00
2018-08-06T00:57:11.971Z,52.19
2018-08-06T00:59:40.254Z,52.31
2018-08-06T01:02:08.613Z,52.44
2018-08-06T01:04:36.886Z,52.91
2018-08-06T01:07:05.296Z,52.87
2018-08-06T01:09:33.537Z,52.64
2018-08-06T01:12:01.887Z,53.31
2018-08-06T01:14:30.184Z,53.14
2018-08-06T01:16:58.422Z,53.41
2018-08-06T01:19:26.749Z,53.78
2018-08-06T01:21:54.983Z,53.70
2018-08-06T01:24:23.202Z,53.96
2018-08-06T01:26:51.745Z,53.66
2018-08-06T01:29:19.955Z,53.85
2018-08-06T01:31:48.741Z,53.82
2018-08-06T01:34:16.950Z,53.51
2018-08-06T01:36:45.219Z,53.40
2018-08-06T01:39:13.907Z,53.59
2018-08-06T01:41:42.241Z,53.84
2018-08-06T01:44:10.542Z,54.08
2018-08-06T01:46:39.145Z,53.81
2018-08-06T01:49:07.467Z,53.77
2018-08-06T01:51:35.742Z,54.15
2018-08-06T01:54:04.032Z,54.27
2018-08-06T01:56:32.279Z,54.70
2018-08-06T01:59:00.500Z,54.66
2018-08-06T02:01:28.826Z,55.13
2018-08-06T02:03:57.130Z,54.93
2018-08-06T02:06:25.375Z,55.65
2018-08-06T02:08:53.683Z,55.61
2018-08-06T02:11:21.948Z,55.40
2018-08-06T02:13:50.243Z,55.72
2018-08-06T02:16:18.543Z,55.60
2018-08-06T02:18:46.815Z,55.37
2018-08-06T02:21:15.067Z,55.63
2018-08-06T02:23:43.310Z,55.61
2018-08-06T02:26:11.602Z,55.78
2018-08-06T02:28:39.935Z,55.70
2018-08-06T02:31:08.266Z,55.14
2018-08-06T02:33:36.623Z,55.53
2018-08-06T02:36:04.931Z,55.38
2018-08-06T02:38:33.177Z,55.72
2018-08-06T02:41:01.404Z,55.19
2018-08-06T02:43:29.729Z,55.12
2018-08-06T02:45:58.034Z,55.35
2018-08-06T02:48:26.312Z,54.85
2018-08-06T02:50:54.550Z,55.07
2018-08-06T02:53:22.858Z,54.81
2018-08-06T02:55:51.167Z,55.21
2018-08-06T02:58:19.498Z,55.08
2018-08-06T03:00:47.854Z,54.40
2018-08-06T03:03:16.118Z,54.59
2018-08-06T03:05:44.432Z,54.22
2018-08-06T03:08:12.986Z,54.01
2018-08-06T03:10:41.695Z,53.91
2018-08-06T03:13:09.998Z,54.39
2018-08-06T03:15:38.274Z,53.93
2018-08-06T03:18:06.585Z,54.20
2018-08-06T03:20:34.862Z,53.99
2018-08-06T03:23:03.123Z,54.54
2018-08-06T03:25:31.361Z,54.70
2018-08-06T03:27:59.794Z,54.94
2018-08-06T03:30:28.067Z,55.19
2018-08-06T03:32:56.314Z,55.26
2018-08-06T03:35:24.527Z,55.65
2018-08-06T03:37:52.799Z,55.72
2018-08-06T03:40:21.190Z,56.25
2018-08-06T03:42:49.453Z,56.15
2018-08-06T03:45:17.710Z,56.46
2018-08-06T03:47:45.926Z,56.99
2018-08-06T03:50:14.592Z,56.84
2018-08-06T03:52:43.202Z,57.38
2018-08-06T03:55:12.182Z,57.47
2018-08-06T03:57:41.204Z,57.61
2018-08-06T04:00:13.220Z,57.75
2018-08-06T04:02:42.153Z,57.44
2018-08-06T04:05:12.453Z,57.49
2018-08-06T04:07:40.896Z,57.47
2018-08-06T04:10:10.726Z,56.96
2018-08-06T04:12:39.060Z,56.88
2018-08-06T04:15:08.263Z,57.04
2018-08-06T04:17:36.591Z,57.06
2018-08-06T04:20:06.410Z,56.79
2018-08-06T04:22:34.630Z,57.32
2018-08-06T04:25:02.858Z,57.13
2018-08-06T04:27:31.114Z,56.73
2018-08-06T04:29:59.361Z,57.12
2018-08-06T04:32:27.702Z,56.68
2018-08-06T04:34:56.168Z,56.56
2018-08-06T04:37:24.491Z,55.68
2018-08-06T04:39:52.894Z,55.41
2018-08-06T04:42:21.249Z,55.64
2018-08-06T04:44:49.625Z,55.99
2018-08-06T04:47:17.930Z,56.01
2018-08-06T04:49:46.214Z,55.97
2018-08-06T04:52:14.661Z,55.93
2018-08-06T04:54:42.940Z,55.29
2018-08-06T04:57:11.198Z,55.07
2018-08-06T04:59:39.499Z,54.61
2018-08-06T05:02:07.692Z,54.68
2018-08-06T05:04:35.943Z,54.51
2018-08-06T05:07:04.304Z,54.82
2018-08-06T05:09:40.480Z,55.17
2018-08-06T05:12:08.778Z,54.96
2018-08-06T05:14:37.854Z,54.65
2018-08-06T05:17:06.620Z,54.18
2018-08-06T05:19:35.167Z,54.77
2018-08-06T05:22:03.474Z,54.39
2018-08-06T05:24:31.747Z,54.13
2018-08-06T05:26:59.997Z,54.20
2018-08-06T05:29:28.365Z,54.20
2018-08-06T05:31:56.668Z,54.25
2018-08-06T05:34:25.119Z,54.49
2018-08-06T05:36:53.351Z,53.80
2018-08-06T05:39:21.610Z,53.93
2018-08-06T05:41:49.856Z,53.33
2018-08-06T05:44:18.114Z,53.58
2018-08-06T05:46:46.415Z,54.03
2018-08-06T05:49:14.646Z,53.86
2018-08-06T05:51:42.909Z,52.91
2018-08-06T05:54:11.175Z,53.16
2018-08-06T05:56:39.379Z,52.60
2018-08-06T05:59:07.656Z,53.15
2018-08-06T06:01:36.045Z,53.01
2018-08-06T06:04:04.400Z,53.20
2018-08-06T06:06:32.647Z,53.40
2018-08-06T06:09:00.905Z,53.09
2018-08-06T06:11:29.264Z,52.38
2018-08-06T06:13:57.425Z,52.77
2018-08-06T06:16:25.726Z,50.88
2018-08-06T06:18:54.116Z,51.29
2018-08-06T06:21:22.363Z,51.32
2018-08-06T06:23:50.654Z,51.57
2018-08-06T06:26:18.976Z,50.06
2018-08-06T06:28:47.179Z,50.81
2018-08-06T06:31:15.555Z,50.59
2018-08-06T06:33:43.734Z,50.11
2018-08-06T06:36:11.945Z,49.87
2018-08-06T06:38:40.185Z,49.14
2018-08-06T06:41:08.462Z,48.87
2018-08-06T06:43:36.714Z,47.91
2018-08-06T06:46:05.035Z,48.40
2018-08-06T06:48:33.294Z,48.45
2018-08-06T06:51:01.522Z,47.78
2018-08-06T06:53:29.762Z,47.35
2018-08-06T06:55:57.968Z,46.52
2018-08-06T06:58:26.153Z,46.70
2018-08-06T07:00:54.462Z,45.55
2018-08-06T07:03:22.678Z,46.65
2018-08-06T07:05:50.901Z,46.48
2018-08-06T07:08:19.201Z,45.65
2018-08-06T07:10:47.465Z,46.26
2018-08-06T07:13:15.650Z,46.00
2018-08-06T07:15:43.894Z,45.89
2018-08-06T07:18:12.146Z,44.91
2018-08-06T07:20:40.411Z,45.06
2018-08-06T07:23:08.656Z,44.77
2018-08-06T07:25:36.898Z,44.56
2018-08-06T07:28:05.205Z,44.48
2018-08-06T07:30:33.484Z,44.54
2018-08-06T07:33:01.679Z,44.03
2018-08-06T07:35:29.950Z,43.10
2018-08-06T07:37:58.174Z,43.15
2018-08-06T07:40:26.420Z,44.23
2018-08-06T07:42:54.730Z,42.96
2018-08-06T07:45:22.903Z,42.74
2018-08-06T07:47:51.399Z,42.78
2018-08-06T07:50:20.464Z,42.75
2018-08-06T07:52:48.758Z,41.03
2018-08-06T07:55:17.270Z,43.08
2018-08-06T07:57:45.547Z,41.43
2018-08-06T08:00:15.217Z,41.96
2018-08-06T08:02:43.536Z,41.45
2018-08-06T08:05:13.447Z,41.64
2018-08-06T08:07:43.260Z,41.47
2018-08-06T08:10:15.226Z,42.06
2018-08-06T08:12:43.958Z,41.71
2018-08-06T08:15:15.402Z,41.91
2018-08-06T08:17:44.707Z,41.76
2018-08-06T08:20:14.275Z,40.49
2018-08-06T08:22:42.503Z,40.22
2018-08-06T08:25:13.467Z,41.16
2018-08-06T08:27:41.646Z,40.98
2018-08-06T08:30:11.667Z,40.30
2018-08-06T08:32:39.863Z,39.63
2018-08-06T08:35:08.437Z,38.89
2018-08-06T08:37:36.842Z,39.06
2018-08-06T08:40:08.266Z,38.62
2018-08-06T08:42:36.462Z,39.21
2018-08-06T08:45:05.946Z,38.53
2018-08-06T08:47:34.134Z,37.98
2018-08-06T08:50:02.326Z,37.97
2018-08-06T08:52:30.599Z,37.82
2018-08-06T08:54:58.681Z,37.16
2018-08-06T08:57:26.879Z,36.50
2018-08-06T08:59:55.102Z,36.75
2018-08-06T09:02:23.282Z,36.09
2018-08-06T09:04:51.998Z,36.56
2018-08-06T09:07:20.235Z,36.29
2018-08-06T09:09:48.363Z,36.21
2018-08-06T09:12:16.518Z,35.69
2018-08-06T09:14:44.686Z,35.56
2018-08-06T09:17:12.856Z,35.11
2018-08-06T09:19:41.118Z,35.85
2018-08-06T09:22:09.358Z,36.11
2018-08-06T09:24:37.642Z,37.10
2018-08-06T09:27:05.949Z,35.42
2018-08-06T09:29:34.174Z,35.26
2018-08-06T09:32:02.367Z,34.38
2018-08-06T09:34:30.594Z,32.88
2018-08-06T09:36:58.825Z,33.45
2018-08-06T09:39:27.019Z,32.54
2018-08-06T09:41:55.228Z,33.25
2018-08-06T09:44:23.448Z,32.71
2018-08-06T09:46:51.646Z,32.40
2018-08-06T09:49:19.834Z,32.26
2018-08-06T09:51:47.994Z,32.80
2018-08-06T09:54:16.634Z,32.04
2018-08-06T09:56:44.836Z,32.69
2018-08-06T09:59:13.025Z,31.07
2018-08-06T10:01:58.446Z,31.00
2018-08-06T10:04:27.427Z,29.42
2018-08-06T10:06:55.915Z,29.95
2018-08-06T10:09:24.130Z,29.91
2018-08-06T10:11:52.395Z,29.37
2018-08-06T10:14:20.566Z,29.94
2018-08-06T10:16:48.782Z,28.82
2018-08-06T10:19:17.396Z,28.58
2018-08-06T10:21:45.424Z,28.32
2018-08-06T10:24:13.607Z,27.80
2018-08-06T10:26:41.850Z,27.37
2018-08-06T10:29:10.028Z,26.32
2018-08-06T10:31:38.216Z,25.76
2018-08-06T10:34:06.514Z,26.20
2018-08-06T10:36:34.702Z,26.06
2018-08-06T10:39:02.995Z,26.63
2018-08-06T10:41:31.194Z,25.34
2018-08-06T10:43:59.382Z,25.05
2018-08-06T10:46:27.612Z,26.29
2018-08-06T10:48:55.820Z,24.24
2018-08-06T10:51:24.055Z,24.95
2018-08-06T10:53:52.282Z,24.79
2018-08-06T10:56:20.443Z,26.22
2018-08-06T10:58:48.646Z,24.19
2018-08-06T11:01:16.844Z,23.88
2018-08-06T11:03:45.045Z,23.86
2018-08-06T11:06:13.252Z,24.31
2018-08-06T11:08:41.526Z,23.71
2018-08-06T11:11:09.671Z,24.61
2018-08-06T11:13:37.875Z,24.85
2018-08-06T11:16:06.099Z,24.70
2018-08-06T11:18:34.310Z,24.21
2018-08-06T11:21:02.514Z,24.14
2018-08-06T11:23:31.546Z,24.71
2018-08-06T11:25:59.734Z,25.31
2018-08-06T11:28:27.995Z,24.62
2018-08-06T11:30:56.143Z,24.26
2018-08-06T11:33:24.347Z,24.40
2018-08-06T11:35:52.547Z,23.25
2018-08-06T11:38:20.760Z,22.84
2018-08-06T11:40:48.958Z,23.00
2018-08-06T11:43:17.196Z,22.25
2018-08-06T11:45:45.399Z,22.87
2018-08-06T11:48:13.584Z,23.47
2018-08-06T11:50:41.811Z,23.52
2018-08-06T11:53:10.002Z,23.32
2018-08-06T11:55:38.252Z,22.77
2018-08-06T11:58:06.492Z,22.99
2018-08-06T12:00:34.699Z,22.23
2018-08-06T12:03:02.889Z,22.66
2018-08-06T12:05:31.095Z,22.65
2018-08-06T12:07:59.262Z,23.02
2018-08-06T12:10:27.450Z,23.24
2018-08-06T12:12:55.631Z,22.89
2018-08-06T12:15:23.811Z,22.90
2018-08-06T12:17:52.014Z,23.31
2018-08-06T12:20:21.029Z,22.23
2018-08-06T12:22:50.535Z,22.43
2018-08-06T12:25:18.999Z,22.73
2018-08-06T12:27:48.011Z,23.63
2018-08-06T12:30:18.228Z,23.27
2018-08-06T12:32:47.209Z,22.88
2018-08-06T12:35:15.922Z,22.23
2018-08-06T12:37:44.426Z,22.88
2018-08-06T12:40:14.694Z,23.17
2018-08-06T12:42:43.063Z,22.29
2018-08-06T12:45:12.055Z,22.57
2018-08-06T12:47:40.758Z,22.55
2018-08-06T12:50:10.267Z,23.61
2018-08-06T12:52:39.266Z,22.85
2018-08-06T12:55:08.772Z,22.62
2018-08-06T12:57:37.506Z,22.04
2018-08-06T13:00:10.346Z,22.12
2018-08-06T13:02:38.534Z,22.38
2018-08-06T13:05:06.781Z,22.36
2018-08-06T13:07:34.964Z,23.19
2018-08-06T13:10:03.170Z,22.59
2018-08-06T13:12:31.386Z,22.92
2018-08-06T13:14:59.582Z,22.14
2018-08-06T13:17:27.805Z,23.04
2018-08-06T13:19:56.067Z,22.60
2018-08-06T13:22:24.303Z,22.31
2018-08-06T13:24:52.609Z,22.91
2018-08-06T13:27:20.827Z,22.11
2018-08-06T13:29:49.054Z,22.69
2018-08-06T13:32:17.262Z,22.58
2018-08-06T13:34:45.457Z,22.05
2018-08-06T13:37:13.638Z,20.87
2018-08-06T13:39:48.411Z,22.36
2018-08-06T13:42:16.659Z,21.91
2018-08-06T13:44:44.884Z,21.71
2018-08-06T13:47:13.063Z,20.41
2018-08-06T13:49:41.250Z,21.37
2018-08-06T13:52:16.161Z,21.90
2018-08-06T13:54:44.371Z,20.88
2018-08-06T13:57:12.558Z,20.57
2018-08-06T13:59:40.734Z,20.64
2018-08-06T14:02:08.942Z,21.14
2018-08-06T14:04:37.163Z,19.86
2018-08-06T14:07:05.484Z,20.39
2018-08-06T14:09:33.616Z,20.61
2018-08-06T14:12:01.832Z,20.77
2018-08-06T14:14:30.023Z,20.21
2018-08-06T14:16:58.336Z,20.76
2018-08-06T14:19:26.491Z,20.34
2018-08-06T14:21:54.676Z,20.97
2018-08-06T14:24:22.874Z,21.32
2018-08-06T14:26:51.090Z,20.59
2018-08-06T14:29:19.254Z,21.57
2018-08-06T14:31:47.640Z,21.96
2018-08-06T14:34:15.907Z,21.91
2018-08-06T14:36:44.024Z,21.83
2018-08-06T14:39:13.199Z,22.07
2018-08-06T14:41:41.493Z,22.13
2018-08-06T14:44:10.070Z,21.84
2018-08-06T14:46:39.031Z,22.91
2018-08-06T14:49:07.566Z,22.61
2018-08-06T14:51:35.826Z,23.53
2018-08-06T14:54:04.371Z,22.79
2018-08-06T14:56:32.624Z,22.84
2018-08-06T14:59:00.883Z,22.43
2018-08-06T15:01:29.087Z,23.07
2018-08-06T15:03:57.302Z,23.37
2018-08-06T15:06:25.479Z,22.99
2018-08-06T15:08:53.675Z,22.80
2018-08-06T15:11:21.943Z,22.46
2018-08-06T15:13:50.195Z,22.41
2018-08-06T15:16:18.408Z,22.50
2018-08-06T15:18:46.622Z,23.17
2018-08-06T15:21:14.809Z,23.67
2018-08-06T15:23:43.036Z,22.82
2018-08-06T15:26:11.260Z,23.10
2018-08-06T15:28:39.428Z,23.72
2018-08-06T15:31:07.966Z,23.29
2018-08-06T15:33:36.168Z,23.25
2018-08-06T15:36:04.487Z,23.29
2018-08-06T15:38:32.738Z,23.54
2018-08-06T15:41:00.994Z,23.21
2018-08-06T15:43:29.313Z,23.34
2018-08-06T15:45:57.489Z,23.27
2018-08-06T15:48:25.682Z,23.14
2018-08-06T15:50:53.990Z,24.75
2018-08-06T15:53:22.215Z,24.56
2018-08-06T15:55:50.494Z,23.90
2018-08-06T15:58:18.801Z,23.85
2018-08-06T16:00:47.009Z,24.65
2018-08-06T16:03:15.249Z,23.87
2018-08-06T16:05:43.491Z,23.41
2018-08-06T16:08:11.727Z,24.38
2018-08-06T16:10:39.990Z,23.88
2018-08-06T16:13:08.271Z,24.37
2018-08-06T16:15:36.535Z,23.93
2018-08-06T16:18:04.881Z,24.07
2018-08-06T16:20:33.108Z,24.75
2018-08-06T16:23:01.428Z,24.27
2018-08-06T16:25:29.722Z,24.54
2018-08-06T16:27:57.919Z,23.09
2018-08-06T16:30:26.690Z,24.01
2018-08-06T16:32:54.978Z,24.44
2018-08-06T16:35:24.134Z,24.36
2018-08-06T16:37:53.918Z,23.94
2018-08-06T16:40:22.198Z,24.43
2018-08-06T16:42:50.978Z,24.09
2018-08-06T16:45:19.622Z,24.74
2018-08-06T16:47:48.044Z,24.90
2018-08-06T16:50:17.403Z,24.59
2018-08-06T16:52:46.115Z,24.80
2018-08-06T16:55:14.463Z,25.01
2018-08-06T16:57:42.834Z,24.36
2018-08-06T17:00:14.342Z,24.67
2018-08-06T17:02:42.567Z,24.77
2018-08-06T17:05:12.291Z,24.51
2018-08-06T17:07:41.168Z,24.56
2018-08-06T17:10:12.021Z,25.69
2018-08-06T17:12:40.664Z,24.75
2018-08-06T17:15:09.957Z,25.06
2018-08-06T17:17:38.489Z,25.25
2018-08-06T17:20:09.973Z,25.71
2018-08-06T17:22:38.247Z,25.37
2018-08-06T17:25:08.431Z,24.93
2018-08-06T17:27:36.907Z,25.76
2018-08-06T17:30:05.914Z,25.66
2018-08-06T17:32:34.503Z,25.31
2018-08-06T17:35:02.823Z,24.92
2018-08-06T17:37:31.114Z,25.20
2018-08-06T17:39:59.489Z,25.56
2018-08-06T17:42:27.884Z,25.14
2018-08-06T17:44:56.237Z,25.92
2018-08-06T17:47:24.427Z,25.22
2018-08-06T17:49:52.706Z,25.44
2018-08-06T17:52:20.907Z,25.31
2018-08-06T17:54:49.142Z,25.26
2018-08-06T17:57:17.310Z,25.11
2018-08-06T17:59:45.510Z,25.74
2018-08-06T18:02:13.701Z,25.64
2018-08-06T18:04:41.840Z,25.35
2018-08-06T18:07:10.012Z,25.62
2018-08-06T18:09:38.170Z,26.04
2018-08-06T18:12:06.355Z,26.02
2018-08-06T18:14:34.524Z,27.37
2018-08-06T18:17:02.690Z,27.57
2018-08-06T18:19:30.857Z,27.40
2018-08-06T18:21:59.038Z,27.03
2018-08-06T18:24:27.231Z,27.28
2018-08-06T18:26:55.402Z,27.90
2018-08-06T18:29:23.611Z,28.78
2018-08-06T18:31:51.769Z,28.88
2018-08-06T18:34:20.168Z,29.44
2018-08-06T18:36:48.370Z,29.14
2018-08-06T18:39:16.676Z,29.24
2018-08-06T18:41:45.035Z,30.20
2018-08-06T18:44:13.339Z,30.43
2018-08-06T18:46:41.506Z,30.33
2018-08-06T18:49:09.792Z,29.55
2018-08-06T18:51:37.994Z,30.43
2018-08-06T18:54:06.584Z,30.06
2018-08-06T18:56:34.754Z,29.89
2018-08-06T18:59:02.926Z,30.50
2018-08-06T19:01:31.088Z,31.35
2018-08-06T19:03:59.275Z,30.04
2018-08-06T19:06:27.478Z,30.28
2018-08-06T19:08:55.796Z,31.81
2018-08-06T19:11:23.963Z,30.11
2018-08-06T19:13:57.558Z,31.45
2018-08-06T19:16:25.767Z,30.93
2018-08-06T19:19:26.806Z,30.01
2018-08-06T19:21:55.690Z,29.54
2018-08-06T19:24:29.074Z,29.32
2018-08-06T19:26:57.522Z,29.56
2018-08-06T19:29:26.151Z,30.41
2018-08-06T19:31:54.810Z,30.45
2018-08-06T19:34:23.368Z,30.68
2018-08-06T19:36:56.929Z,30.49
2018-08-06T19:39:25.112Z,30.68
2018-08-06T19:41:53.698Z,29.99
2018-08-06T19:44:21.909Z,29.91
2018-08-06T19:46:50.164Z,30.07
2018-08-06T19:49:23.694Z,29.97
2018-08-06T19:51:51.887Z,29.49
2018-08-06T19:54:20.071Z,29.56
2018-08-06T19:56:48.258Z,29.44
2018-08-06T19:59:16.463Z,29.83
2018-08-06T20:01:44.639Z,30.28
2018-08-06T20:04:12.810Z,30.21
2018-08-06T20:06:41.004Z,30.50
2018-08-06T20:09:12.728Z,30.91
2018-08-06T20:11:41.218Z,30.87
2018-08-06T20:14:09.787Z,31.34
2018-08-06T20:16:37.973Z,30.89
2018-08-06T20:19:06.534Z,30.69
2018-08-06T20:21:34.704Z,31.07
2018-08-06T20:24:02.941Z,30.78
2018-08-06T20:26:31.106Z,30.87
2018-08-06T20:28:59.322Z,31.35
2018-08-06T20:31:27.526Z,30.99
2018-08-06T20:33:55.698Z,31.57
2018-08-06T20:36:23.876Z,30.83
2018-08-06T20:38:52.077Z,31.15
2018-08-06T20:41:20.254Z,31.04
2018-08-06T20:43:48.444Z,31.72
2018-08-06T20:46:16.647Z,31.87
2018-08-06T20:48:44.945Z,31.59
2018-08-06T20:51:13.042Z,32.09
2018-08-06T20:53:41.224Z,31.93
2018-08-06T20:56:09.426Z,31.60
2018-08-06T20:58:37.612Z,31.93
2018-08-06T21:01:05.814Z,32.36
2018-08-06T21:03:34.022Z,32.09
2018-08-06T21:06:02.238Z,32.04
2018-08-06T21:08:30.430Z,32.50
2018-08-06T21:10:58.622Z,31.41
2018-08-06T21:13:26.822Z,31.59
2018-08-06T21:15:55.010Z,31.57
2018-08-06T21:18:23.207Z,31.79
2018-08-06T21:20:51.390Z,31.40
2018-08-06T21:23:19.570Z,31.46
2018-08-06T21:25:47.770Z,31.22
2018-08-06T21:28:15.934Z,31.45
2018-08-06T21:30:44.134Z,31.21
2018-08-06T21:33:12.306Z,31.04
2018-08-06T21:35:40.526Z,31.20
2018-08-06T21:38:08.752Z,31.22
2018-08-06T21:40:37.685Z,31.65
2018-08-06T21:43:05.896Z,31.02
2018-08-06T21:45:34.099Z,31.56
2018-08-06T21:48:02.335Z,31.64
2018-08-06T21:50:30.533Z,31.15
2018-08-06T21:52:58.711Z,31.35
2018-08-06T21:55:26.894Z,31.04
2018-08-06T21:57:55.078Z,31.40
2018-08-06T22:00:38.893Z,31.53
2018-08-06T22:03:21.855Z,31.32
2018-08-06T22:05:50.039Z,31.32
2018-08-06T22:08:18.238Z,31.87
2018-08-06T22:10:46.438Z,31.54
2018-08-06T22:13:14.627Z,31.33
2018-08-06T22:15:42.818Z,31.12
2018-08-06T22:18:12.156Z,31.96
2018-08-06T22:20:40.410Z,32.09
2018-08-06T22:23:09.038Z,32.44
2018-08-06T22:25:37.230Z,32.81
2018-08-06T22:28:06.591Z,32.46
2018-08-06T22:30:34.771Z,33.08
2018-08-06T22:33:02.971Z,32.61
2018-08-06T22:35:31.143Z,33.33
2018-08-06T22:37:59.342Z,32.83
2018-08-06T22:40:27.530Z,33.16
2018-08-06T22:42:55.724Z,33.90
2018-08-06T22:45:23.902Z,33.97
2018-08-06T22:47:52.110Z,34.07
2018-08-06T22:50:20.287Z,34.34
2018-08-06T22:52:48.494Z,34.53
2018-08-06T22:55:16.679Z,34.72
2018-08-06T22:57:45.466Z,34.46
2018-08-06T23:00:15.344Z,34.72
2018-08-06T23:02:43.915Z,34.56
2018-08-06T23:05:13.646Z,34.42
2018-08-06T23:07:41.850Z,34.49
2018-08-06T23:10:12.823Z,34.96
2018-08-06T23:12:41.062Z,34.97
2018-08-06T23:15:14.990Z,34.71
2018-08-06T23:17:43.778Z,34.49
2018-08-06T23:20:11.906Z,35.03
2018-08-06T23:22:40.144Z,34.92
2018-08-06T23:25:08.356Z,34.32
2018-08-06T23:27:37.553Z,34.24
2018-08-06T23:30:10.227Z,34.02
2018-08-06T23:32:38.612Z,33.96
2018-08-06T23:35:07.703Z,34.66
2018-08-06T23:37:35.883Z,34.67
2018-08-06T23:40:04.715Z,34.42
2018-08-06T23:42:32.891Z,35.28
2018-08-06T23:45:01.071Z,34.95
2018-08-06T23:47:29.262Z,34.98
2018-08-06T23:49:57.450Z,34.44
2018-08-06T23:52:25.639Z,34.88
2018-08-06T23:54:53.830Z,35.20
2018-08-06T23:57:22.023Z,34.91
2018-08-06T23:59:50.211Z,35.78
